aviador You're here:

KVRB Decoded Metar

VERO BEACH in FL, USA
Report Time2018-07-23 14:53:00
UTC Time2018-07-23 15:44:58
Flight Rules vfr VFR
Wind240° at 14 kt
W.Decomp.*RWY 22: 12.5 kt HW 6.4 kt RCW
RWY 29: 10.2 kt HW 9.5 kt LCW
W.Rank240° ranks 32
Current wind is above 240° avg. (6.8)
Visibility9999 m
Phenomena:N/A
Clouds:N/A
Expected CloudBase > 4,000 ft AGL from Temp-Dew spread
CeilingNone
Temp31°C (ISA +16)
Dew Point21°C (55% RH)
Heat Index33.7°C
AAT30.1°C
QNH1012 hPa
Density Alt2,231 ft
Elevation33 ft
Report Wrong Elevation
Raw Report
METAR KVRB 231453Z 24014KT 10SM CLR 31/21 A2988 RMK AO2 SLP117 T03110206
53017=

Extra information for KVRB:More info

Metar Taf Metar & Taf Last 4 Metars F.Rules Stats Wind Profile Meteogram Temp Stats Airport Information Weather charts Add Link Nearby VenuesMetar ALERT Operation Metar Decoded Social comments

AIRNAV info for KVRB